Time;durP1;ratioP1;P1;durP2;ratioP2;P2;SDS_P1;SDS_P2;PMS_P1;PMS_P2;Temp;Humidity;BMP_temperature;BMP_pressure;BME280_temperature;BME280_humidity;BME280_pressure;Samples;Min_cycle;Max_cycle;Signal;HPM_P1;HPM_P2
2024/01/08 00:00:42;;;;;;;3.50;3.20;;;;;;;-2.50;83.34;103174.06;5155577;27;20138;-84
2024/01/08 00:03:09;;;;;;;4.03;3.17;;;;;;;-2.51;82.73;103171.75;5153541;27;20856;-84
2024/01/08 00:05:38;;;;;;;2.53;2.35;;;;;;;-2.52;82.16;103170.97;5136915;27;20055;-84
2024/01/08 00:08:07;;;;;;;2.22;2.00;;;;;;;-2.54;81.93;103178.31;5136354;27;20126;-84
2024/01/08 00:10:37;;;;;;;3.35;3.10;;;;;;;-2.56;81.51;103180.44;5155619;27;20063;-85
2024/01/08 00:13:05;;;;;;;2.83;2.53;;;;;;;-2.56;81.44;103171.84;5121168;27;20567;-84
2024/01/08 00:15:32;;;;;;;3.25;2.80;;;;;;;-2.56;81.04;103172.63;5157088;27;20051;-84
2024/01/08 00:17:59;;;;;;;2.45;2.20;;;;;;;-2.58;81.50;103174.75;5137878;27;20044;-84
2024/01/08 00:20:26;;;;;;;4.07;3.20;;;;;;;-2.62;81.06;103168.56;5137989;27;20513;-83
2024/01/08 00:22:53;;;;;;;3.58;2.78;;;;;;;-2.64;81.12;103173.28;5152793;27;20553;-84
2024/01/08 00:25:21;;;;;;;5.63;3.55;;;;;;;-2.63;80.55;103177.44;5122818;27;20191;-83
2024/01/08 00:27:51;;;;;;;3.50;3.20;;;;;;;-2.63;80.33;103168.84;5158351;27;20039;-83
2024/01/08 00:30:18;;;;;;;2.38;2.17;;;;;;;-2.67;80.44;103173.09;5122379;27;20078;-84
2024/01/08 00:32:45;;;;;;;2.53;2.33;;;;;;;-2.67;80.08;103173.09;5159408;27;20102;-84
2024/01/08 00:35:13;;;;;;;5.22;2.55;;;;;;;-2.69;79.55;103176.00;5158410;27;20058;-83
2024/01/08 00:37:41;;;;;;;4.10;2.90;;;;;;;-2.70;79.68;103184.88;5123976;27;20047;-84
2024/01/08 00:40:09;;;;;;;3.33;2.90;;;;;;;-2.71;79.84;103176.28;5140029;27;20136;-83
2024/01/08 00:42:37;;;;;;;2.28;2.08;;;;;;;-2.70;79.38;103177.06;5159533;27;20036;-84
2024/01/08 00:45:04;;;;;;;3.00;2.42;;;;;;;-2.69;79.14;103170.78;5143484;27;20104;-84
2024/01/08 00:47:32;;;;;;;3.50;2.90;;;;;;;-2.70;79.04;103174.44;5144112;27;20277;-84
2024/01/08 00:49:59;;;;;;;3.42;3.00;;;;;;;-2.70;79.65;103175.22;5165557;27;20033;-84
2024/01/08 00:52:28;;;;;;;3.25;2.95;;;;;;;-2.68;79.13;103182.75;5167129;27;20118;-84
2024/01/08 00:54:54;;;;;;;4.28;3.28;;;;;;;-2.66;78.95;103185.06;5152124;27;20070;-84
2024/01/08 00:57:21;;;;;;;3.80;2.95;;;;;;;-2.67;78.89;103175.72;5170466;27;20047;-83
2024/01/08 00:59:47;;;;;;;3.28;2.97;;;;;;;-2.66;78.87;103182.47;5167368;27;20044;-84
2024/01/08 01:02:14;;;;;;;6.75;3.30;;;;;;;-2.65;78.65;103179.56;5147222;27;20047;-83
2024/01/08 01:04:41;;;;;;;3.50;2.63;;;;;;;-2.65;78.60;103179.56;5163774;27;20058;-84
2024/01/08 01:07:08;;;;;;;4.28;3.10;;;;;;;-2.65;78.77;103178.81;5141060;27;20044;-84
2024/01/08 01:09:34;;;;;;;3.20;2.90;;;;;;;-2.64;78.51;103190.78;5162894;27;20122;-84
2024/01/08 01:12:01;;;;;;;2.90;2.42;;;;;;;-2.68;78.79;103187.97;5147907;27;20043;-84
2024/01/08 01:14:28;;;;;;;3.67;2.95;;;;;;;-2.72;78.35;103194.81;5167795;27;20031;-84
2024/01/08 01:16:55;;;;;;;3.17;2.88;;;;;;;-2.77;78.51;103198.28;5148446;27;20151;-84
2024/01/08 01:19:21;;;;;;;3.22;2.92;;;;;;;-2.82;78.10;103193.19;5165239;27;20051;-84
2024/01/08 01:21:49;;;;;;;4.30;2.97;;;;;;;-2.86;78.02;103194.84;5162487;27;20043;-84
2024/01/08 01:24:15;;;;;;;2.78;2.58;;;;;;;-2.89;78.13;103194.63;5159857;27;20051;-84
2024/01/08 01:26:42;;;;;;;5.30;2.83;;;;;;;-2.93;78.04;103191.06;5124258;27;20043;-84
2024/01/08 01:29:09;;;;;;;3.10;2.33;;;;;;;-2.97;78.41;103188.25;5140469;27;20047;-85
2024/01/08 01:31:36;;;;;;;3.15;2.85;;;;;;;-3.00;78.20;103188.81;5140403;27;20078;-84
2024/01/08 01:34:06;;;;;;;4.68;3.28;;;;;;;-3.02;78.21;103190.94;5123148;27;20047;-84
2024/01/08 01:36:35;;;;;;;3.07;2.77;;;;;;;-3.04;78.57;103193.81;5143550;27;20142;-84
2024/01/08 01:39:02;;;;;;;3.17;2.78;;;;;;;-3.07;78.55;103191.78;5160173;27;20302;-84
2024/01/08 01:41:29;;;;;;;4.05;2.40;;;;;;;-3.09;78.58;103199.13;5145738;27;20053;-84
2024/01/08 01:43:56;;;;;;;3.33;3.03;;;;;;;-3.11;78.79;103203.84;5131131;27;20047;-84
2024/01/08 01:46:41;;;;;;;3.38;3.08;;;;;;;-3.13;79.13;103210.41;5146422;27;20047;-84
2024/01/08 01:49:26;;;;;;;5.63;2.90;;;;;;;-3.14;78.92;103211.44;5144766;27;20711;-84
2024/01/08 01:51:54;;;;;;;2.88;2.67;;;;;;;-3.16;79.52;103203.91;5153639;27;20047;-84
2024/01/08 01:54:23;;;;;;;5.07;2.83;;;;;;;-3.19;79.60;103206.31;5173652;27;20039;-84
2024/01/08 01:56:58;;;;;;;3.50;2.75;;;;;;;-3.23;79.75;103206.16;5155375;27;20969;-84
2024/01/08 01:59:27;;;;;;;3.13;2.60;;;;;;;-3.26;79.72;103209.31;5140225;27;20138;-84
2024/01/08 02:01:55;;;;;;;2.58;2.38;;;;;;;-3.29;79.94;103207.28;5140019;27;20043;-83
2024/01/08 02:04:27;;;;;;;4.40;3.17;;;;;;;-3.32;80.00;103207.84;5156360;27;20047;-84
2024/01/08 02:06:56;;;;;;;3.78;2.13;;;;;;;-3.34;79.95;103206.56;5139169;27;20505;-84
2024/01/08 02:09:23;;;;;;;3.00;2.42;;;;;;;-3.37;80.26;103215.72;5155284;27;20043;-84
2024/01/08 02:11:49;;;;;;;4.50;3.00;;;;;;;-3.39;80.18;103216.00;5140016;27;20035;-84
2024/01/08 02:14:16;;;;;;;5.03;2.88;;;;;;;-3.40;80.65;103217.06;5138982;27;20056;-84
2024/01/08 02:16:43;;;;;;;4.60;3.28;;;;;;;-3.42;80.33;103213.97;5157530;27;20090;-84
2024/01/08 02:19:11;;;;;;;3.38;2.88;;;;;;;-3.43;80.47;103219.47;5122229;27;20047;-85
2024/01/08 02:21:38;;;;;;;3.90;2.97;;;;;;;-3.46;80.77;103207.78;5154018;27;20055;-84
2024/01/08 02:24:07;;;;;;;3.38;3.00;;;;;;;-3.48;80.83;103204.69;5159079;27;20047;-84
2024/01/08 02:26:36;;;;;;;4.55;2.90;;;;;;;-3.49;81.04;103215.38;5121759;27;20047;-84
2024/01/08 02:29:03;;;;;;;5.20;2.22;;;;;;;-3.51;81.17;103202.66;5158602;27;20035;-85
2024/01/08 02:31:30;;;;;;;6.15;2.40;;;;;;;-3.52;81.14;103208.91;5140538;27;20051;-84
2024/01/08 02:33:57;;;;;;;3.00;2.65;;;;;;;-3.53;81.34;103211.78;5140777;27;20077;-84
2024/01/08 02:36:24;;;;;;;3.20;2.90;;;;;;;-3.55;81.30;103211.31;5159169;27;20145;-84
2024/01/08 02:38:51;;;;;;;5.15;2.75;;;;;;;-3.56;81.57;103213.13;5124711;27;20047;-83
2024/01/08 02:41:17;;;;;;;4.22;3.13;;;;;;;-3.57;81.23;103216.78;5141803;27;20498;-83
2024/01/08 02:43:44;;;;;;;4.13;3.22;;;;;;;-3.58;81.54;103219.69;5161097;27;20043;-83
2024/01/08 02:46:11;;;;;;;2.95;2.42;;;;;;;-3.61;81.54;103215.84;5137983;27;20072;-84
2024/01/08 02:48:38;;;;;;;3.63;2.75;;;;;;;-3.61;82.21;103231.47;5159320;27;20077;-83
2024/01/08 02:51:04;;;;;;;3.85;2.95;;;;;;;-3.62;81.64;103229.13;5162217;27;20580;-83
2024/01/08 02:53:31;;;;;;;3.63;2.50;;;;;;;-3.64;82.12;103226.03;5159067;27;20043;-83
2024/01/08 02:55:58;;;;;;;3.03;2.67;;;;;;;-3.64;82.01;103233.84;5160048;27;20089;-83
2024/01/08 02:58:25;;;;;;;5.57;3.15;;;;;;;-3.66;82.57;103233.34;5140791;27;20039;-86
2024/01/08 03:00:51;;;;;;;4.07;3.20;;;;;;;-3.66;82.31;103225.53;5162689;27;20498;-83
2024/01/08 03:03:18;;;;;;;3.50;2.88;;;;;;;-3.68;82.40;103225.06;5160822;27;20502;-82
2024/01/08 03:05:45;;;;;;;3.42;3.08;;;;;;;-3.70;82.69;103227.94;5141359;27;20077;-82
2024/01/08 03:08:12;;;;;;;3.40;3.10;;;;;;;-3.72;82.84;103235.25;5152971;27;20052;-84
2024/01/08 03:10:38;;;;;;;6.22;3.33;;;;;;;-3.74;82.85;103238.13;5154351;27;20043;-83
2024/01/08 03:13:05;;;;;;;3.28;2.50;;;;;;;-3.76;82.85;103237.63;5155935;27;20556;-83
2024/01/08 03:15:31;;;;;;;3.03;2.72;;;;;;;-3.76;82.90;103248.06;5138242;27;20552;-83
2024/01/08 03:17:58;;;;;;;6.20;2.75;;;;;;;-3.75;83.42;103238.41;5155596;27;20134;-83
2024/01/08 03:20:25;;;;;;;5.30;3.03;;;;;;;-3.75;83.33;103238.41;5154721;27;20051;-83
2024/01/08 03:22:52;;;;;;;5.53;3.03;;;;;;;-3.73;83.49;103238.91;5155170;27;20055;-83
2024/01/08 03:25:19;;;;;;;3.83;3.00;;;;;;;-3.73;83.62;103244.88;5153944;27;20047;-83
2024/01/08 03:27:45;;;;;;;4.95;3.03;;;;;;;-3.72;83.85;103235.25;5155498;27;20538;-83
2024/01/08 03:30:12;;;;;;;3.22;2.83;;;;;;;-3.72;84.04;103238.63;5136001;27;20402;-82
2024/01/08 03:32:39;;;;;;;4.80;3.25;;;;;;;-3.74;83.82;103243.34;5155950;27;20090;-82
2024/01/08 03:35:07;;;;;;;4.82;2.58;;;;;;;-3.76;84.13;103240.25;5154797;27;20130;-82
2024/01/08 03:37:35;;;;;;;5.05;3.60;;;;;;;-3.78;83.94;103239.75;5136555;27;20628;-82
2024/01/08 03:40:04;;;;;;;5.03;2.85;;;;;;;-3.78;84.24;103241.56;5145707;27;20049;-82
2024/01/08 03:42:31;;;;;;;3.85;2.55;;;;;;;-3.80;84.50;103249.66;5155102;27;20043;-82
2024/01/08 03:44:58;;;;;;;3.15;2.85;;;;;;;-3.81;84.40;103235.09;5135335;27;20054;-82
2024/01/08 03:47:26;;;;;;;4.13;3.30;;;;;;;-3.80;84.86;103244.47;5155225;27;20040;-83
2024/01/08 03:49:54;;;;;;;4.93;2.95;;;;;;;-3.78;84.59;103250.16;5156020;27;20439;-83
2024/01/08 03:52:22;;;;;;;3.33;3.03;;;;;;;-3.76;84.95;103240.25;5137608;27;20490;-83
2024/01/08 03:54:49;;;;;;;3.65;3.05;;;;;;;-3.75;85.21;103241.78;5136384;27;20079;-82
2024/01/08 03:57:16;;;;;;;4.75;3.35;;;;;;;-3.72;84.92;103236.03;5132832;27;20043;-84
2024/01/08 03:59:43;;;;;;;4.00;3.35;;;;;;;-3.68;85.37;103240.66;5155843;27;20050;-84
2024/01/08 04:02:11;;;;;;;3.42;2.95;;;;;;;-3.67;85.35;103232.59;5157185;27;20039;-83
2024/01/08 04:04:40;;;;;;;3.58;2.85;;;;;;;-3.64;85.17;103239.06;5158658;27;20951;-83
2024/01/08 04:07:08;;;;;;;3.92;3.53;;;;;;;-3.61;85.35;103238.50;5161703;27;20123;-83
2024/01/08 04:09:34;;;;;;;3.83;2.72;;;;;;;-3.58;85.15;103240.50;5159415;27;20047;-83
2024/01/08 04:12:04;;;;;;;4.78;3.45;;;;;;;-3.57;85.48;103231.66;5161478;27;20495;-83
2024/01/08 04:14:31;;;;;;;5.97;3.10;;;;;;;-3.54;85.16;103242.28;5160391;27;20054;-83
2024/01/08 04:17:02;;;;;;;;;;;;;;;-3.51;85.41;103231.28;5160247;27;20519;-83
2024/01/08 04:19:29;;;;;;;4.05;2.72;;;;;;;-3.48;85.08;103235.16;5157832;27;20390;-81
2024/01/08 04:21:55;;;;;;;6.30;3.10;;;;;;;-3.46;85.54;103239.03;5162030;27;20040;-80
2024/01/08 04:24:22;;;;;;;5.18;2.85;;;;;;;-3.44;85.41;103238.75;5161810;27;20039;-80
2024/01/08 04:26:48;;;;;;;4.80;3.33;;;;;;;-3.42;85.60;103239.25;5145880;27;20044;-80
2024/01/08 04:29:15;;;;;;;4.22;3.17;;;;;;;-3.40;85.38;103234.53;5161541;27;20038;-82
2024/01/08 04:31:42;;;;;;;4.82;3.75;;;;;;;-3.39;85.86;103236.09;5161930;27;20051;-82
2024/01/08 04:34:09;;;;;;;5.00;3.70;;;;;;;-3.37;85.78;103232.13;5161082;27;20735;-81
2024/01/08 04:36:45;;;;;;;4.00;3.13;;;;;;;-3.36;85.45;103233.69;5163652;27;20070;-81
2024/01/08 04:39:12;;;;;;;5.60;3.28;;;;;;;-3.33;85.82;103234.19;5165246;27;20414;-81
2024/01/08 04:41:38;;;;;;;4.40;3.53;;;;;;;-3.31;86.11;103239.88;5164395;27;20050;-82
2024/01/08 04:44:07;;;;;;;4.63;3.40;;;;;;;-3.31;86.24;103234.66;5162899;27;20031;-82
2024/01/08 04:46:34;;;;;;;4.30;3.20;;;;;;;-3.28;86.26;103240.09;5144877;27;20051;-83
2024/01/08 04:49:03;;;;;;;4.93;3.35;;;;;;;-3.25;86.62;103239.53;5163897;27;20050;-82
2024/01/08 04:51:30;;;;;;;4.63;3.33;;;;;;;-3.23;86.73;103239.25;5163220;27;20555;-82
2024/01/08 04:53:57;;;;;;;6.00;3.50;;;;;;;-3.21;87.06;103240.50;5144953;27;20504;-82
2024/01/08 04:56:25;;;;;;;6.32;3.58;;;;;;;-3.19;87.21;103237.59;5164173;27;20047;-82
2024/01/08 04:58:52;;;;;;;4.63;3.50;;;;;;;-3.18;87.21;103245.13;5159987;27;20073;-82
2024/01/08 05:01:20;;;;;;;7.20;3.97;;;;;;;-3.17;87.30;103238.84;5163784;27;20035;-82
2024/01/08 05:03:47;;;;;;;7.78;4.07;;;;;;;-3.16;87.53;103227.38;5162530;27;20085;-82
2024/01/08 05:06:14;;;;;;;4.28;3.65;;;;;;;-3.13;87.68;103236.44;5130169;27;20478;-82
2024/01/08 05:08:41;;;;;;;4.35;3.45;;;;;;;-3.12;87.64;103233.56;5164365;27;20035;-83
2024/01/08 05:11:08;;;;;;;4.88;3.88;;;;;;;-3.10;87.63;103233.28;5166148;27;20043;-82
2024/01/08 05:13:35;;;;;;;6.50;3.30;;;;;;;-3.08;87.89;103225.94;5172839;27;20055;-81
2024/01/08 05:16:02;;;;;;;4.85;3.80;;;;;;;-3.08;87.79;103226.72;5173425;27;20058;-81
2024/01/08 05:18:29;;;;;;;5.20;3.75;;;;;;;-3.05;88.10;103233.19;5170612;27;20046;-81
2024/01/08 05:20:55;;;;;;;5.07;3.65;;;;;;;-3.03;88.35;103224.03;5140864;27;20369;-81
2024/01/08 05:23:22;;;;;;;5.47;3.58;;;;;;;-3.00;88.16;103227.91;5157528;27;20047;-81
2024/01/08 05:25:49;;;;;;;4.43;3.47;;;;;;;-2.98;88.21;103227.63;5159597;27;20050;-81
2024/01/08 05:28:16;;;;;;;6.30;4.05;;;;;;;-2.97;88.39;103235.16;5158283;27;20130;-81
2024/01/08 05:30:42;;;;;;;5.53;4.00;;;;;;;-2.96;88.68;103233.31;5157855;27;20090;-81
2024/01/08 05:33:09;;;;;;;3.80;3.33;;;;;;;-2.96;88.59;103221.06;5159633;27;20039;-82
2024/01/08 05:35:37;;;;;;;9.27;3.92;;;;;;;-2.93;88.45;103228.31;5159638;27;20132;-82
2024/01/08 05:38:05;;;;;;;6.68;4.05;;;;;;;-2.92;88.69;103223.88;5157947;27;20043;-82
2024/01/08 05:40:32;;;;;;;4.88;3.90;;;;;;;-2.90;89.06;103225.13;5159671;27;20498;-83
2024/01/08 05:42:58;;;;;;;7.90;4.15;;;;;;;-2.89;88.72;103221.47;5142069;27;20626;-84
2024/01/08 05:45:25;;;;;;;6.25;4.50;;;;;;;-2.87;88.90;103216.75;5155992;27;20023;-82
2024/01/08 05:47:53;;;;;;;4.38;3.97;;;;;;;-2.86;89.38;103218.28;5159496;27;20072;-83
2024/01/08 05:50:21;;;;;;;6.90;3.97;;;;;;;-2.83;88.87;103216.94;5161652;27;20118;-83
2024/01/08 05:52:48;;;;;;;5.88;3.42;;;;;;;-2.82;88.98;103221.09;5161458;27;20035;-82
2024/01/08 05:55:15;;;;;;;6.10;3.80;;;;;;;-2.82;89.25;103219.25;5142497;27;20051;-83
2024/01/08 05:57:41;;;;;;;6.25;4.10;;;;;;;-2.80;89.11;103217.13;5161678;27;20081;-83
2024/01/08 06:00:08;;;;;;;11.38;4.07;;;;;;;-2.77;89.01;103219.16;5161161;27;20108;-84
2024/01/08 06:02:35;;;;;;;8.02;3.97;;;;;;;-2.77;89.39;103221.75;5146862;27;20062;-80
2024/01/08 06:05:03;;;;;;;8.10;4.47;;;;;;;-2.75;89.22;103224.84;5170102;27;20112;-81
2024/01/08 06:07:30;;;;;;;4.18;3.63;;;;;;;-2.73;89.32;103225.34;5169768;27;20031;-81
2024/01/08 06:09:56;;;;;;;4.47;3.80;;;;;;;-2.71;89.42;103220.63;5171062;27;20146;-81
2024/01/08 06:12:23;;;;;;;4.65;3.60;;;;;;;-2.70;89.57;103224.00;5170069;27;20035;-82
2024/01/08 06:14:49;;;;;;;7.40;4.85;;;;;;;-2.70;89.72;103226.59;5160817;27;20104;-84
2024/01/08 06:17:17;;;;;;;5.68;4.28;;;;;;;-2.69;89.62;103221.09;5164394;27;20047;-86
2024/01/08 06:19:43;;;;;;;8.52;4.72;;;;;;;-2.66;89.21;103227.56;5146695;27;20049;-82
2024/01/08 06:22:10;;;;;;;4.93;3.42;;;;;;;-2.64;89.14;103228.06;5168814;27;20152;-81
2024/01/08 06:24:37;;;;;;;4.90;4.07;;;;;;;-2.63;89.36;103218.41;5164895;27;20498;-82
2024/01/08 06:27:04;;;;;;;7.07;4.53;;;;;;;-2.61;89.59;103226.72;5165638;27;20050;-83
2024/01/08 06:29:30;;;;;;;5.03;4.10;;;;;;;-2.61;89.41;103224.88;5162448;27;20244;-82
2024/01/08 06:31:57;;;;;;;7.88;5.07;;;;;;;-2.59;89.22;103225.38;5166335;27;20039;-82
2024/01/08 06:34:23;;;;;;;6.68;4.03;;;;;;;-2.58;89.59;103213.09;5167359;27;20043;-82
2024/01/08 06:36:50;;;;;;;4.30;3.90;;;;;;;-2.57;89.70;103225.06;5168865;27;20074;-83
2024/01/08 06:39:17;;;;;;;7.47;3.67;;;;;;;-2.57;89.37;103231.06;5168557;27;20066;-84
2024/01/08 06:41:43;;;;;;;5.15;4.10;;;;;;;-2.55;89.02;103222.97;5148946;27;20138;-82
2024/01/08 06:44:10;;;;;;;4.90;4.05;;;;;;;-2.53;89.55;103218.22;5167112;27;20080;-83
2024/01/08 06:46:37;;;;;;;6.50;3.83;;;;;;;-2.51;88.87;103221.31;5164722;27;20043;-79
2024/01/08 06:49:03;;;;;;;4.63;3.92;;;;;;;-2.49;88.89;103213.97;5137122;27;20177;-79
2024/01/08 06:51:30;;;;;;;4.32;3.85;;;;;;;-2.47;88.72;103222.28;5144797;27;20126;-79
2024/01/08 06:53:56;;;;;;;6.13;4.13;;;;;;;-2.45;88.67;103218.31;5162334;27;20493;-78
2024/01/08 06:56:23;;;;;;;5.43;3.97;;;;;;;-2.43;88.36;103218.03;5165496;27;20092;-84
2024/01/08 06:58:50;;;;;;;7.78;4.00;;;;;;;-2.43;88.48;103213.59;5167504;27;20043;-84
2024/01/08 07:01:16;;;;;;;5.78;3.50;;;;;;;-2.39;88.13;103226.81;5155139;27;20039;-83
2024/01/08 07:03:43;;;;;;;5.97;3.80;;;;;;;-2.38;88.34;103220.53;5157024;27;20078;-83
2024/01/08 07:06:10;;;;;;;6.22;3.58;;;;;;;-2.38;88.11;103226.50;5176603;27;20035;-82
2024/01/08 07:08:37;;;;;;;5.65;3.97;;;;;;;-2.36;88.15;103223.63;5177782;27;20059;-83
2024/01/08 07:11:03;;;;;;;5.95;4.03;;;;;;;-2.35;88.06;103231.16;5174521;27;20091;-82
2024/01/08 07:13:30;;;;;;;7.53;4.13;;;;;;;-2.33;87.88;103224.88;5168404;27;20096;-83
2024/01/08 07:15:57;;;;;;;5.00;3.83;;;;;;;-2.30;87.86;103229.50;5168899;27;20111;-83
2024/01/08 07:18:24;;;;;;;5.30;3.72;;;;;;;-2.30;87.96;103238.13;5149157;27;20031;-83
2024/01/08 07:20:50;;;;;;;6.30;4.50;;;;;;;-2.30;87.83;103232.91;5134476;27;20119;-85
2024/01/08 07:23:17;;;;;;;4.63;4.00;;;;;;;-2.29;87.88;103242.28;5164769;27;20073;-83
2024/01/08 07:25:44;;;;;;;4.47;3.45;;;;;;;-2.27;87.32;103253.19;5167029;27;20043;-82
2024/01/08 07:28:11;;;;;;;4.57;3.60;;;;;;;-2.24;87.26;103244.00;5173118;27;20036;-82
2024/01/08 07:30:38;;;;;;;6.50;3.17;;;;;;;-2.23;87.10;103250.78;5171678;27;20035;-85
2024/01/08 07:33:06;;;;;;;4.13;3.10;;;;;;;-2.24;86.64;103250.00;5175485;27;20126;-84
2024/01/08 07:35:34;;;;;;;4.72;3.05;;;;;;;-2.22;86.65;103249.72;5175464;27;20074;-84
2024/01/08 07:38:01;;;;;;;3.28;2.97;;;;;;;-2.21;86.46;103251.25;5177766;27;20053;-83
2024/01/08 07:40:27;;;;;;;6.15;3.10;;;;;;;-2.21;86.20;103246.03;5172153;27;20043;-83
2024/01/08 07:42:55;;;;;;;5.85;3.92;;;;;;;-2.20;85.80;103250.19;5144191;27;20066;-83
2024/01/08 07:45:27;;;;;;;8.20;3.08;;;;;;;-2.19;85.68;103257.75;5147801;27;20058;-83
2024/01/08 07:47:56;;;;;;;3.78;2.85;;;;;;;-2.18;85.76;103259.28;5136209;27;20093;-80
2024/01/08 07:50:22;;;;;;;3.95;3.38;;;;;;;-2.17;86.16;103260.06;5147400;27;20100;-84
2024/01/08 07:52:49;;;;;;;6.90;3.42;;;;;;;-2.17;85.34;103260.06;5168769;27;20043;-84
2024/01/08 07:55:16;;;;;;;6.15;3.38;;;;;;;-2.17;85.14;103268.66;5151770;27;20043;-84
2024/01/08 07:57:42;;;;;;;5.30;3.20;;;;;;;-2.17;85.17;103268.66;5170458;27;20497;-83
2024/01/08 08:00:11;;;;;;;3.03;2.70;;;;;;;-2.16;84.97;103265.00;5152827;27;20035;-84
2024/01/08 08:02:39;;;;;;;4.32;3.50;;;;;;;-2.14;85.16;103267.31;5173717;27;20620;-83
2024/01/08 08:05:06;;;;;;;2.92;2.70;;;;;;;-2.15;85.24;103270.97;5178870;27;20035;-84
2024/01/08 08:07:33;;;;;;;4.15;3.05;;;;;;;-2.15;85.08;103274.38;5175486;27;20050;-85
2024/01/08 08:09:59;;;;;;;3.47;3.17;;;;;;;-2.14;84.90;103272.53;5176700;27;20035;-85
2024/01/08 08:12:27;;;;;;;4.45;3.28;;;;;;;-2.13;84.73;103271.47;5175491;27;20127;-85
2024/01/08 08:14:53;;;;;;;3.65;3.00;;;;;;;-2.12;84.39;103267.78;5176639;27;20046;-81
2024/01/08 08:17:20;;;;;;;4.15;3.08;;;;;;;-2.10;84.61;103265.66;5175145;27;20039;-81
2024/01/08 08:19:47;;;;;;;3.58;3.22;;;;;;;-2.11;84.66;103269.34;5169233;27;20057;-81
2024/01/08 08:22:14;;;;;;;4.32;3.17;;;;;;;-2.09;84.31;103272.44;5171527;27;20070;-82
2024/01/08 08:24:41;;;;;;;9.05;3.38;;;;;;;-2.09;84.39;103281.03;5169374;27;20039;-81
2024/01/08 08:27:09;;;;;;;4.03;3.17;;;;;;;-2.06;84.17;103279.69;5170085;27;20094;-80
2024/01/08 08:29:41;;;;;;;4.75;3.15;;;;;;;-2.06;84.25;103284.91;5171915;27;20805;-79
2024/01/08 08:32:09;;;;;;;6.07;3.75;;;;;;;-2.05;84.58;103289.06;5172179;27;20055;-82
2024/01/08 08:34:36;;;;;;;3.13;2.85;;;;;;;-2.04;84.28;103288.00;5155661;27;20050;-82
2024/01/08 08:37:03;;;;;;;3.58;2.83;;;;;;;-2.03;84.16;103276.50;5174256;27;20847;-83
2024/01/08 08:39:32;;;;;;;3.75;3.45;;;;;;;-2.02;84.47;103293.69;5172055;27;20055;-82
2024/01/08 08:41:58;;;;;;;5.13;2.85;;;;;;;-2.03;84.20;103300.75;5169252;27;20036;-82
2024/01/08 08:44:25;;;;;;;3.72;3.38;;;;;;;-2.01;84.01;103297.88;5173026;27;20111;-82
2024/01/08 08:46:52;;;;;;;3.50;2.60;;;;;;;-1.99;84.36;103300.16;5168128;27;20039;-79
2024/01/08 08:49:19;;;;;;;9.07;3.78;;;;;;;-1.99;83.97;103306.16;5170272;27;20039;-80
2024/01/08 08:51:45;;;;;;;3.95;3.17;;;;;;;-1.98;84.54;103302.47;5148678;27;20039;-84
2024/01/08 08:54:12;;;;;;;3.80;3.38;;;;;;;-1.98;84.39;103301.69;5170090;27;20183;-79
2024/01/08 08:56:39;;;;;;;4.45;3.38;;;;;;;-1.96;84.80;103299.56;5164501;27;20043;-79
2024/01/08 08:59:06;;;;;;;5.07;3.10;;;;;;;-1.95;84.24;103298.50;5163932;27;20118;-82
2024/01/08 09:01:33;;;;;;;4.97;3.20;;;;;;;-1.92;84.12;103308.38;5164735;27;20043;-83
2024/01/08 09:03:59;;;;;;;3.05;2.78;;;;;;;-1.90;84.39;103317.47;5164195;27;20035;-81
2024/01/08 09:06:30;;;;;;;4.38;3.30;;;;;;;-1.89;84.35;103313.00;5159810;27;20050;-83
2024/01/08 09:08:57;;;;;;;8.27;3.00;;;;;;;-1.87;84.35;103316.88;5162127;27;20132;-83
2024/01/08 09:11:24;;;;;;;4.00;3.17;;;;;;;-1.85;83.84;103316.59;5160066;27;20023;-83
2024/01/08 09:13:51;;;;;;;7.47;3.47;;;;;;;-1.82;84.26;103323.84;5119481;27;20047;-83
2024/01/08 09:16:18;;;;;;;3.03;2.78;;;;;;;-1.81;84.16;103323.56;5157882;27;20116;-84
2024/01/08 09:18:45;;;;;;;4.10;3.38;;;;;;;-1.79;84.54;103325.88;5122588;27;20047;-83
2024/01/08 09:21:13;;;;;;;4.00;3.33;;;;;;;-1.77;84.24;103328.97;5158239;27;20039;-84
2024/01/08 09:23:41;;;;;;;2.83;2.58;;;;;;;-1.77;84.92;103331.59;5139529;27;20084;-84
2024/01/08 09:26:08;;;;;;;4.70;3.42;;;;;;;-1.77;84.78;103334.19;5163323;27;20085;-83
2024/01/08 09:28:35;;;;;;;3.75;3.25;;;;;;;-1.75;84.33;103338.06;5164184;27;20031;-84
2024/01/08 09:31:03;;;;;;;4.15;3.55;;;;;;;-1.72;84.08;103336.72;5162560;27;20924;-84
2024/01/08 09:33:30;;;;;;;2.80;2.60;;;;;;;-1.70;84.24;103339.81;5145385;27;20043;-84
2024/01/08 09:35:57;;;;;;;3.90;3.30;;;;;;;-1.66;84.00;103337.38;5148562;27;20043;-84
2024/01/08 09:38:24;;;;;;;3.30;2.45;;;;;;;-1.65;84.12;103352.00;5163730;27;20135;-84
2024/01/08 09:40:51;;;;;;;4.07;3.50;;;;;;;-1.67;84.00;103347.06;5163120;27;20498;-84
2024/01/08 09:43:24;;;;;;;3.63;3.22;;;;;;;-1.65;83.81;103339.69;5161068;27;20050;-84
2024/01/08 09:46:01;;;;;;;4.80;3.75;;;;;;;-1.60;83.94;103344.78;5146830;27;20043;-84
2024/01/08 09:48:30;;;;;;;6.20;3.38;;;;;;;-1.60;84.03;103349.28;5160849;27;20043;-84
2024/01/08 09:50:58;;;;;;;3.47;3.17;;;;;;;-1.59;83.57;103356.03;5165409;27;20047;-85
2024/01/08 09:53:28;;;;;;;3.45;3.03;;;;;;;-1.61;83.73;103355.56;5128333;27;20047;-85
2024/01/08 09:55:56;;;;;;;5.13;2.78;;;;;;;-1.61;83.83;103353.72;5162681;27;20116;-84
2024/01/08 09:58:24;;;;;;;5.32;3.55;;;;;;;-1.60;83.48;103359.72;5143144;27;20051;-84
2024/01/08 10:00:52;;;;;;;4.07;3.70;;;;;;;-1.56;83.63;103358.81;5162837;27;20086;-83
2024/01/08 10:03:19;;;;;;;4.03;3.35;;;;;;;-1.53;83.61;103354.84;5163902;27;20035;-85
2024/01/08 10:05:46;;;;;;;4.15;3.42;;;;;;;-1.54;83.45;103363.75;5163637;27;20039;-85
2024/01/08 10:08:13;;;;;;;6.05;3.60;;;;;;;-1.57;83.12;103354.66;5141412;27;20035;-82
2024/01/08 10:10:39;;;;;;;3.38;2.78;;;;;;;-1.55;82.60;103355.16;5162226;27;20497;-88
2024/01/08 10:13:09;;;;;;;3.03;2.70;;;;;;;-1.52;83.20;103351.19;5126360;27;20650;-87
2024/01/08 10:15:37;;;;;;;7.88;3.88;;;;;;;-1.52;82.99;103341.50;5148061;27;20079;-87
2024/01/08 10:18:08;;;;;;;3.70;3.40;;;;;;;-1.47;82.79;103356.31;5154719;27;20047;-86
2024/01/08 10:20:37;;;;;;;;;;;;;;;-1.47;83.66;103358.91;5168160;27;20071;-86
2024/01/08 10:23:08;;;;;;;3.95;3.33;;;;;;;-1.45;83.70;103354.16;5125144;27;19923;-86
2024/01/08 10:25:37;;;;;;;5.15;3.60;;;;;;;-1.47;83.93;103354.47;5147981;27;20402;-87
2024/01/08 10:28:10;;;;;;;8.27;3.92;;;;;;;-1.46;83.79;103350.78;5156110;27;20043;-85
2024/01/08 10:30:40;;;;;;;8.90;3.72;;;;;;;-1.42;84.14;103343.91;5169362;27;20035;-83
2024/01/08 10:33:07;;;;;;;3.72;3.35;;;;;;;-1.37;84.18;103343.03;5164080;27;20529;-87
2024/01/08 10:35:40;;;;;;;5.13;3.63;;;;;;;-1.35;84.48;103346.13;5136368;27;20039;-85
2024/01/08 10:38:07;;;;;;;5.30;3.38;;;;;;;-1.36;84.43;103340.13;5154336;27;20051;-88
2024/01/08 10:40:35;;;;;;;3.88;3.42;;;;;;;-1.34;84.66;103337.22;5122631;27;20039;-80
2024/01/08 10:43:01;;;;;;;4.35;3.67;;;;;;;-1.29;84.84;103336.34;5159289;27;20118;-85
2024/01/08 10:45:28;;;;;;;7.60;3.67;;;;;;;-1.29;84.69;103331.88;5158246;27;20050;-82
2024/01/08 10:48:06;;;;;;;5.82;4.20;;;;;;;-1.29;84.88;103324.03;5162156;27;20039;-83
2024/01/08 10:50:36;;;;;;;6.43;4.03;;;;;;;-1.26;85.15;103325.28;5174995;27;20046;-85
2024/01/08 10:53:03;;;;;;;6.60;4.10;;;;;;;-1.24;85.12;103323.94;5173421;27;20031;-81
2024/01/08 10:55:31;;;;;;;6.28;3.67;;;;;;;-1.22;84.78;103326.25;5152912;27;20050;-84
2024/01/08 10:58:07;;;;;;;4.70;3.60;;;;;;;-1.21;85.07;103317.34;5159773;27;20043;-80
2024/01/08 11:00:35;;;;;;;6.50;4.15;;;;;;;-1.15;84.62;103321.34;5124562;27;20051;-85
2024/01/08 11:03:02;;;;;;;4.93;4.35;;;;;;;-1.12;84.62;103320.78;5159540;27;20053;-83
2024/01/08 11:05:32;;;;;;;3.88;3.47;;;;;;;-1.14;84.47;103312.44;5158395;27;20494;-82
2024/01/08 11:08:00;;;;;;;7.10;4.40;;;;;;;-1.13;84.90;103319.22;5158857;27;20084;-80
2024/01/08 11:10:28;;;;;;;4.63;3.50;;;;;;;-1.09;84.76;103310.50;5156403;27;20050;-81
2024/01/08 11:12:56;;;;;;;7.72;4.22;;;;;;;-1.00;84.48;103307.94;5157966;27;20082;-83
2024/01/08 11:15:27;;;;;;;5.43;4.22;;;;;;;-0.98;84.36;103311.03;5138921;27;20832;-84
2024/01/08 11:17:58;;;;;;;3.38;3.08;;;;;;;-0.93;83.35;103315.38;5158733;27;20914;-89
2024/01/08 11:20:42;;;;;;;6.40;3.25;;;;;;;-1.02;83.46;103304.84;5157370;27;20043;-83
2024/01/08 11:23:27;;;;;;;4.65;3.90;;;;;;;-1.04;82.88;103305.16;5154653;27;20047;-84
2024/01/08 11:25:54;;;;;;;6.93;3.45;;;;;;;-1.02;82.61;103299.63;5160041;27;20051;-82
2024/01/08 11:28:21;;;;;;;3.20;2.88;;;;;;;-0.95;81.55;103297.38;5157155;27;20047;-79